createdAt,value
2023-03-23T16:00:17.114Z,1.43
2023-03-23T16:02:47.055Z,1.17
2023-03-23T16:05:15.540Z,1.53
2023-03-23T16:07:44.594Z,1.60
2023-03-23T16:10:17.857Z,1.27
2023-03-23T16:12:46.064Z,1.40
2023-03-23T16:17:42.541Z,1.50
2023-03-23T16:20:13.761Z,1.50
2023-03-23T16:22:41.720Z,1.30
2023-03-23T16:25:11.549Z,1.33
2023-03-23T16:27:39.254Z,1.30
2023-03-23T16:30:16.003Z,1.40
2023-03-23T16:32:43.706Z,1.50
2023-03-23T16:35:12.062Z,1.70
2023-03-23T16:37:40.220Z,1.33
2023-03-23T16:40:13.235Z,1.70
2023-03-23T16:42:40.896Z,1.77
2023-03-23T16:45:09.764Z,1.70
2023-03-23T16:47:37.945Z,1.73
2023-03-23T16:50:07.749Z,1.80
2023-03-23T16:52:35.614Z,1.37
2023-03-23T16:55:16.999Z,1.80
2023-03-23T16:57:44.989Z,1.57
2023-03-23T17:00:16.110Z,1.67
2023-03-23T17:02:44.335Z,1.40
2023-03-23T17:05:12.647Z,1.40
2023-03-23T17:07:40.673Z,1.27
2023-03-23T17:10:11.311Z,1.90
2023-03-23T17:12:41.371Z,1.60
2023-03-23T17:15:10.525Z,1.50
2023-03-23T17:17:38.568Z,1.90
2023-03-23T17:20:09.737Z,2.53
2023-03-23T17:22:37.398Z,1.97
2023-03-23T17:25:07.202Z,1.63
2023-03-23T17:27:36.220Z,1.50
2023-03-23T17:30:07.001Z,2.57
2023-03-23T17:32:34.907Z,3.00
2023-03-23T17:35:02.761Z,1.77
2023-03-23T17:37:30.319Z,1.70
2023-03-23T17:39:57.849Z,2.30
2023-03-23T17:42:25.585Z,1.93
2023-03-23T17:44:53.033Z,1.70
2023-03-23T17:47:22.192Z,1.80
2023-03-23T17:49:49.713Z,2.03
2023-03-23T17:52:17.170Z,1.97
2023-03-23T17:54:44.870Z,2.10
2023-03-23T17:57:12.463Z,3.23
2023-03-23T17:59:40.383Z,1.70
2023-03-23T18:02:08.415Z,2.67
2023-03-23T18:04:37.352Z,1.97
2023-03-23T18:07:05.209Z,1.80
2023-03-23T18:09:32.738Z,1.93
2023-03-23T18:12:00.382Z,2.30
2023-03-23T18:14:28.060Z,2.17
2023-03-23T18:16:56.048Z,2.23
2023-03-23T18:19:23.641Z,2.60
2023-03-23T18:21:52.441Z,2.50
2023-03-23T18:24:20.619Z,2.67
2023-03-23T18:26:48.418Z,2.10
2023-03-23T18:29:15.883Z,2.30
2023-03-23T18:31:44.152Z,2.87
2023-03-23T18:34:11.756Z,2.00
2023-03-23T18:36:39.416Z,2.50
2023-03-23T18:39:10.566Z,2.33
2023-03-23T18:41:38.038Z,2.13
2023-03-23T18:44:06.192Z,2.00
2023-03-23T18:46:34.129Z,2.57
2023-03-23T18:49:01.685Z,2.50
2023-03-23T18:51:30.820Z,2.80
2023-03-23T18:53:58.275Z,2.40
2023-03-23T18:56:27.120Z,2.60
2023-03-23T18:58:54.738Z,2.83
2023-03-23T19:01:22.524Z,2.33
2023-03-23T19:03:50.180Z,2.53
2023-03-23T19:06:20.040Z,3.10
2023-03-23T19:08:47.868Z,2.50
2023-03-23T19:11:16.044Z,2.70
2023-03-23T19:13:58.072Z,3.93
2023-03-23T19:16:31.004Z,3.43
2023-03-23T19:18:58.543Z,3.67
2023-03-23T19:21:29.654Z,3.43
2023-03-23T19:23:59.044Z,3.07
2023-03-23T19:26:31.161Z,3.10
2023-03-23T19:31:31.938Z,3.57
2023-03-23T19:33:59.638Z,3.37
2023-03-23T19:36:27.790Z,3.60
2023-03-23T19:38:57.555Z,3.60
2023-03-23T19:41:27.659Z,3.37
2023-03-23T19:43:55.552Z,2.80
2023-03-23T19:46:25.505Z,3.97
2023-03-23T19:48:54.297Z,4.00
2023-03-23T19:51:23.211Z,4.00
2023-03-23T19:53:51.190Z,4.17
2023-03-23T19:56:21.536Z,2.87
2023-03-23T19:58:49.874Z,3.43
2023-03-23T20:01:18.003Z,2.80
2023-03-23T20:03:48.157Z,3.27
2023-03-23T20:06:16.578Z,2.70
2023-03-23T20:08:47.475Z,2.90
2023-03-23T20:11:16.994Z,3.17
2023-03-23T20:13:45.454Z,2.77
2023-03-23T20:16:13.325Z,3.27
2023-03-23T20:18:41.752Z,2.40
2023-03-23T20:21:12.441Z,2.47
2023-03-23T20:23:41.421Z,2.40
2023-03-23T20:26:12.352Z,2.63
2023-03-23T20:28:42.231Z,2.83
2023-03-23T20:31:17.038Z,3.00
2023-03-23T20:34:00.773Z,2.53
2023-03-23T20:36:34.532Z,2.60
2023-03-23T20:39:04.959Z,5.00
2023-03-23T20:41:32.854Z,3.50
2023-03-23T20:44:00.637Z,2.43
2023-03-23T20:46:28.172Z,3.57
2023-03-23T20:48:55.655Z,3.00
2023-03-23T20:51:23.211Z,2.97
2023-03-23T20:53:52.187Z,3.03
2023-03-23T20:56:19.973Z,3.50
2023-03-23T20:58:48.440Z,2.90
2023-03-23T21:01:16.200Z,2.77
2023-03-23T21:03:44.473Z,3.00
2023-03-23T21:06:12.400Z,2.50
2023-03-23T21:08:41.489Z,2.80
2023-03-23T21:11:14.578Z,2.57
2023-03-23T21:13:42.491Z,2.80
2023-03-23T21:16:10.156Z,2.40
2023-03-23T21:18:37.901Z,2.63
2023-03-23T21:21:11.191Z,3.00
2023-03-23T21:23:47.008Z,2.83
2023-03-23T21:26:17.631Z,2.20
2023-03-23T21:28:45.751Z,3.07
2023-03-23T21:31:15.005Z,2.40
2023-03-23T21:33:42.704Z,2.00
2023-03-23T21:36:10.869Z,2.23
2023-03-23T21:38:39.813Z,2.27
2023-03-23T21:41:09.548Z,2.10
2023-03-23T21:43:40.741Z,3.10
2023-03-23T21:46:10.130Z,2.20
2023-03-23T21:48:41.432Z,2.87
2023-03-23T21:51:11.329Z,2.30
2023-03-23T21:53:39.017Z,2.17
2023-03-23T21:56:09.663Z,2.20
2023-03-23T21:58:39.409Z,2.37
2023-03-23T22:01:08.312Z,2.30
2023-03-23T22:03:36.542Z,2.53
2023-03-23T22:06:11.513Z,2.67
2023-03-23T22:08:41.237Z,2.30
2023-03-23T22:11:13.204Z,2.47
2023-03-23T22:13:42.393Z,1.50
2023-03-23T22:16:13.447Z,2.10
2023-03-23T22:18:43.387Z,1.87
2023-03-23T22:21:12.317Z,2.10
2023-03-23T22:23:41.095Z,1.90
2023-03-23T22:26:10.039Z,2.07
2023-03-23T22:28:38.474Z,2.10
2023-03-23T22:31:19.659Z,2.83
2023-03-23T22:33:51.365Z,2.03
2023-03-23T22:36:20.108Z,2.13
2023-03-23T22:38:49.580Z,2.57
2023-03-23T22:41:20.058Z,2.03
2023-03-23T22:43:48.868Z,2.33
2023-03-23T22:46:18.781Z,1.90
2023-03-23T22:48:46.899Z,2.23
2023-03-23T22:51:16.425Z,2.30
2023-03-23T22:53:44.805Z,1.97
2023-03-23T22:56:12.799Z,1.50
2023-03-23T22:58:40.698Z,1.80
2023-03-23T23:01:11.896Z,1.90
2023-03-23T23:03:41.963Z,2.10
2023-03-23T23:06:11.460Z,1.67
2023-03-23T23:08:39.499Z,2.00
2023-03-23T23:11:11.074Z,2.10
2023-03-23T23:13:39.040Z,2.00
2023-03-23T23:16:08.415Z,2.50
2023-03-23T23:18:36.996Z,1.90
2023-03-23T23:21:09.010Z,2.10
2023-03-23T23:23:37.422Z,2.73
2023-03-23T23:26:06.188Z,1.77
2023-03-23T23:28:34.018Z,1.60
2023-03-23T23:31:01.981Z,1.83
2023-03-23T23:33:29.595Z,1.60
2023-03-23T23:35:57.316Z,1.63
2023-03-23T23:38:26.196Z,1.50
2023-03-23T23:40:53.752Z,1.80
2023-03-23T23:43:21.269Z,1.87
2023-03-23T23:45:48.885Z,1.93
2023-03-23T23:48:16.657Z,1.73
2023-03-23T23:50:44.605Z,1.73
2023-03-23T23:53:12.950Z,2.00
2023-03-23T23:55:42.054Z,2.10
2023-03-23T23:58:09.806Z,1.80
